Time;durP1;ratioP1;P1;durP2;ratioP2;P2;SDS_P1;SDS_P2;PMS_P1;PMS_P2;Temp;Humidity;BMP_temperature;BMP_pressure;BME280_temperature;BME280_humidity;BME280_pressure;Samples;Min_cycle;Max_cycle;Signal;HPM_P1;HPM_P2
2021/09/07 00:00:15;;;;;;;11.30;6.07;;;;;;;7.22;71.71;100870.17;1784253;79;21480;-51
2021/09/07 00:02:41;;;;;;;11.20;6.50;;;;;;;7.23;71.74;100873.73;1786057;79;21065;-51
2021/09/07 00:05:10;;;;;;;14.27;5.97;;;;;;;7.20;71.81;100870.19;1795246;78;21044;-51
2021/09/07 00:07:37;;;;;;;12.23;6.27;;;;;;;7.19;71.75;100878.24;1784976;79;20933;-51
2021/09/07 00:10:08;;;;;;;8.30;5.00;;;;;;;7.15;71.74;100880.07;1783306;79;20859;-51
2021/09/07 00:12:36;;;;;;;8.97;3.80;;;;;;;7.12;71.94;100879.26;1785828;79;20891;-50
2021/09/07 00:15:06;;;;;;;10.37;4.23;;;;;;;7.11;72.00;100882.84;1796001;79;22176;-51
2021/09/07 00:17:32;;;;;;;9.60;4.03;;;;;;;7.10;71.94;100880.62;1783903;79;20887;-51
2021/09/07 00:20:01;;;;;;;7.93;4.57;;;;;;;7.09;72.03;100879.30;1783439;77;20937;-51
2021/09/07 00:22:27;;;;;;;6.70;4.13;;;;;;;7.10;72.10;100883.75;1785785;79;21039;-51
2021/09/07 00:24:53;;;;;;;9.83;4.77;;;;;;;7.10;72.12;100885.97;1785513;79;21056;-51
2021/09/07 00:27:21;;;;;;;6.70;4.80;;;;;;;7.10;71.98;100886.42;1780043;77;21113;-51
2021/09/07 00:29:48;;;;;;;8.13;4.27;;;;;;;7.09;71.92;100885.99;1782942;79;21050;-51
2021/09/07 00:32:14;;;;;;;12.37;5.83;;;;;;;7.08;71.97;100886.44;1783793;77;21140;-51
2021/09/07 00:34:41;;;;;;;7.37;4.60;;;;;;;7.06;71.95;100890.08;1780333;79;21064;-51
2021/09/07 00:37:08;;;;;;;9.97;5.70;;;;;;;7.01;71.92;100883.44;1780196;79;21061;-51
2021/09/07 00:39:34;;;;;;;11.90;5.67;;;;;;;6.96;72.05;100883.09;1781738;79;22131;-51
2021/09/07 00:42:01;;;;;;;12.10;6.07;;;;;;;6.89;72.12;100888.11;1781914;79;21455;-51
2021/09/07 00:44:27;;;;;;;6.70;3.97;;;;;;;6.86;72.08;100886.36;1782196;79;21068;-51
2021/09/07 00:46:57;;;;;;;8.37;3.93;;;;;;;6.84;72.08;100894.86;1784219;79;21346;-51
2021/09/07 00:49:24;;;;;;;8.40;4.63;;;;;;;6.82;72.16;100886.84;1719685;82;20922;-51
2021/09/07 00:51:52;;;;;;;10.07;4.53;;;;;;;6.82;72.09;100891.31;1725159;82;21491;-50
2021/09/07 00:54:19;;;;;;;7.00;4.37;;;;;;;6.82;72.13;100884.63;1731967;81;20911;-51
2021/09/07 00:56:46;;;;;;;12.10;5.13;;;;;;;6.82;71.99;100880.16;1743587;79;20905;-51
2021/09/07 00:59:13;;;;;;;11.50;5.60;;;;;;;6.80;71.91;100883.78;1743612;81;20921;-51
2021/09/07 01:01:40;;;;;;;9.27;5.13;;;;;;;6.80;71.94;100885.13;1734573;81;21452;-51
2021/09/07 01:04:08;;;;;;;10.47;4.47;;;;;;;6.78;71.87;100887.81;1718118;82;22466;-51
2021/09/07 01:06:35;;;;;;;9.00;5.80;;;;;;;6.76;71.83;100883.39;1746835;79;21909;-51
2021/09/07 01:09:02;;;;;;;10.13;5.67;;;;;;;6.74;71.69;100884.73;1732339;80;22374;-53
2021/09/07 01:11:31;;;;;;;8.67;4.73;;;;;;;6.73;71.66;100878.06;1717071;81;21005;-53
2021/09/07 01:13:58;;;;;;;11.00;5.60;;;;;;;6.69;71.64;100881.26;1783100;79;21080;-53
2021/09/07 01:16:27;;;;;;;16.27;6.27;;;;;;;6.66;71.64;100881.74;1778854;78;21108;-53
2021/09/07 01:18:55;;;;;;;7.17;4.20;;;;;;;6.62;71.52;100874.69;1783135;77;21045;-51
2021/09/07 01:21:22;;;;;;;8.80;3.80;;;;;;;6.58;71.49;100880.52;1782343;79;21404;-50
2021/09/07 01:23:49;;;;;;;6.60;4.20;;;;;;;6.56;71.63;100888.13;1782515;79;21243;-51
2021/09/07 01:26:18;;;;;;;10.10;3.57;;;;;;;6.53;71.58;100886.40;1778990;79;21700;-51
2021/09/07 01:28:45;;;;;;;6.67;3.97;;;;;;;6.51;71.58;100883.30;1788656;77;21114;-51
2021/09/07 01:31:12;;;;;;;8.97;5.13;;;;;;;6.49;71.57;100887.33;1783294;79;20961;-50
2021/09/07 01:33:40;;;;;;;6.80;3.50;;;;;;;6.46;71.61;100884.23;1783754;78;20933;-51
2021/09/07 01:36:08;;;;;;;8.03;4.70;;;;;;;6.48;71.71;100886.89;1783917;79;20891;-51
2021/09/07 01:38:36;;;;;;;9.13;4.33;;;;;;;6.48;71.65;100890.02;1783480;79;21064;-50
2021/09/07 01:41:03;;;;;;;13.93;5.80;;;;;;;6.43;71.61;100892.77;1777117;79;21055;-51
2021/09/07 01:43:30;;;;;;;8.20;5.23;;;;;;;6.41;71.59;100892.79;1779560;77;20955;-50
2021/09/07 01:45:56;;;;;;;8.40;5.53;;;;;;;6.38;71.63;100892.81;1784109;78;20938;-50
2021/09/07 01:48:24;;;;;;;10.43;4.90;;;;;;;6.35;71.59;100890.66;1785704;79;21416;-51
2021/09/07 01:50:50;;;;;;;6.70;3.97;;;;;;;6.30;71.64;100882.67;1785406;79;20961;-51
2021/09/07 01:53:17;;;;;;;10.83;4.37;;;;;;;6.28;71.65;100880.95;1782253;77;21043;-51
2021/09/07 01:55:44;;;;;;;9.83;4.10;;;;;;;6.26;71.63;100882.30;1782673;79;20922;-51
2021/09/07 01:58:10;;;;;;;5.50;3.73;;;;;;;6.26;71.71;100882.30;1785919;79;21065;-51
2021/09/07 02:00:38;;;;;;;7.23;3.97;;;;;;;6.25;71.77;100882.31;1784519;79;21046;-50
2021/09/07 02:03:04;;;;;;;5.17;4.17;;;;;;;6.25;71.80;100883.65;1781561;79;22611;-51
2021/09/07 02:05:31;;;;;;;8.43;4.70;;;;;;;6.24;71.82;100880.53;1780014;79;21491;-51
2021/09/07 02:07:58;;;;;;;8.80;4.90;;;;;;;6.25;71.74;100884.98;1780985;77;21021;-51
2021/09/07 02:10:24;;;;;;;10.13;5.17;;;;;;;6.26;71.74;100886.31;1788253;79;21103;-51
2021/09/07 02:12:53;;;;;;;13.60;5.77;;;;;;;6.24;71.65;100881.88;1781497;79;21100;-51
2021/09/07 02:15:21;;;;;;;7.57;4.23;;;;;;;6.22;71.68;100887.69;1783145;79;21034;-51
2021/09/07 02:17:47;;;;;;;7.47;4.60;;;;;;;6.19;71.63;100889.08;1785917;79;21130;-51
2021/09/07 02:20:16;;;;;;;8.83;5.00;;;;;;;6.17;71.63;100892.22;1779693;77;21803;-51
2021/09/07 02:22:44;;;;;;;5.73;3.60;;;;;;;6.13;71.64;100893.14;1779848;77;21081;-50
2021/09/07 02:25:11;;;;;;;8.50;3.30;;;;;;;6.08;71.68;100891.42;1783378;79;21638;-51
2021/09/07 02:27:38;;;;;;;7.20;4.00;;;;;;;6.06;71.64;100889.22;1784767;79;21701;-51
2021/09/07 02:30:07;;;;;;;6.43;2.63;;;;;;;6.04;71.67;100889.67;1784833;79;22192;-51
2021/09/07 02:32:35;;;;;;;5.97;3.97;;;;;;;6.04;71.67;100891.02;1778476;79;21090;-51
2021/09/07 02:35:02;;;;;;;6.37;4.23;;;;;;;6.04;71.77;100889.67;1784438;79;21496;-51
2021/09/07 02:37:29;;;;;;;5.17;3.30;;;;;;;6.03;71.78;100887.94;1779629;79;21081;-51
2021/09/07 02:39:56;;;;;;;7.63;3.97;;;;;;;6.04;71.78;100891.02;1778300;79;21049;-51
2021/09/07 02:42:22;;;;;;;7.87;4.87;;;;;;;6.03;71.81;100886.59;1779302;79;21035;-52
2021/09/07 02:44:50;;;;;;;7.90;4.93;;;;;;;5.99;71.73;100890.20;1781582;79;21120;-50
2021/09/07 02:47:16;;;;;;;7.33;5.20;;;;;;;5.98;71.78;100897.77;1776632;79;21709;-50
2021/09/07 02:49:44;;;;;;;9.47;5.10;;;;;;;5.94;71.76;100899.18;1779929;79;21458;-51
2021/09/07 02:52:10;;;;;;;6.00;3.90;;;;;;;5.89;71.87;100894.31;1778791;79;21487;-51
2021/09/07 02:54:36;;;;;;;7.30;3.97;;;;;;;5.85;71.97;100889.89;1788022;79;21511;-51
2021/09/07 02:57:04;;;;;;;7.33;3.57;;;;;;;5.81;72.01;100897.49;1779614;79;21669;-51
2021/09/07 02:59:30;;;;;;;7.40;3.00;;;;;;;5.78;71.97;100897.55;1780141;79;21428;-51
2021/09/07 03:01:57;;;;;;;4.27;3.30;;;;;;;5.76;72.09;100899.34;1781998;79;21504;-50
2021/09/07 03:04:25;;;;;;;6.40;3.30;;;;;;;5.74;72.17;100898.02;1781973;78;21471;-51
2021/09/07 03:06:53;;;;;;;6.10;3.57;;;;;;;5.75;72.31;100898.45;1780974;79;21427;-51
2021/09/07 03:09:20;;;;;;;6.53;3.23;;;;;;;5.76;72.41;100892.66;1779170;79;21076;-51
2021/09/07 03:14:23;;;;;;;4.93;3.47;;;;;;;5.83;72.34;100889.91;1863980;75;25967;-52
2021/09/07 03:16:51;;;;;;;5.30;3.73;;;;;;;5.81;72.31;100893.03;1840180;76;21121;-52
2021/09/07 03:19:18;;;;;;;6.03;3.37;;;;;;;5.82;72.31;100895.26;1837714;76;21695;-51
2021/09/07 03:21:45;;;;;;;7.63;4.10;;;;;;;5.81;72.28;100898.83;1846190;75;20888;-52
2021/09/07 03:24:12;;;;;;;10.20;4.53;;;;;;;5.79;72.26;100897.50;1842772;75;21412;-52
2021/09/07 03:26:40;;;;;;;8.10;4.70;;;;;;;5.78;72.29;100901.11;1843701;76;20937;-51
2021/09/07 03:29:06;;;;;;;9.27;3.80;;;;;;;5.76;72.28;100903.34;1847615;75;21507;-52
2021/09/07 03:31:34;;;;;;;7.23;3.53;;;;;;;5.74;72.32;100902.02;1802534;77;22631;-52
2021/09/07 03:34:01;;;;;;;4.30;2.43;;;;;;;5.72;72.35;100897.14;1749291;80;20933;-52
2021/09/07 03:36:27;;;;;;;6.90;2.50;;;;;;;5.73;72.48;100901.59;1768507;79;20957;-52
2021/09/07 03:38:55;;;;;;;5.87;2.23;;;;;;;5.74;72.61;100899.35;1767158;79;20910;-52
2021/09/07 03:41:22;;;;;;;5.10;2.47;;;;;;;5.77;72.65;100895.77;1766025;79;21271;-52
2021/09/07 03:43:49;;;;;;;9.97;3.10;;;;;;;5.80;72.76;100900.61;1767888;79;21432;-52
2021/09/07 03:46:17;;;;;;;4.60;2.67;;;;;;;5.84;72.86;100898.80;1751367;80;20903;-52
2021/09/07 03:48:44;;;;;;;6.87;3.53;;;;;;;5.85;72.96;100900.13;1760453;80;20878;-52
2021/09/07 03:51:11;;;;;;;4.90;3.27;;;;;;;5.88;73.05;100893.43;1760317;79;20871;-52
2021/09/07 03:53:37;;;;;;;5.00;3.30;;;;;;;5.89;73.14;100891.20;1759389;79;20943;-52
2021/09/07 03:56:04;;;;;;;8.70;4.63;;;;;;;5.91;73.21;100894.74;1759375;79;22225;-52
2021/09/07 03:58:31;;;;;;;8.53;2.83;;;;;;;5.92;73.36;100894.30;1758474;79;20902;-52
2021/09/07 04:00:58;;;;;;;3.20;1.80;;;;;;;5.94;73.47;100897.39;1756828;79;20898;-52
2021/09/07 04:03:25;;;;;;;3.97;1.97;;;;;;;5.97;73.60;100897.78;1757326;80;20949;-52
2021/09/07 04:05:52;;;;;;;3.73;2.40;;;;;;;6.01;73.84;100899.09;1757897;79;21538;-52
2021/09/07 04:08:20;;;;;;;4.60;2.23;;;;;;;6.07;74.09;100898.13;1751344;80;21419;-52
2021/09/07 04:10:46;;;;;;;5.67;2.20;;;;;;;6.14;74.30;100895.80;1746746;80;21551;-51
2021/09/07 04:13:15;;;;;;;3.70;2.17;;;;;;;6.22;74.50;100905.06;1760836;79;21425;-51
2021/09/07 04:15:43;;;;;;;5.97;3.33;;;;;;;6.31;74.65;100907.63;1786826;78;20942;-51
2021/09/07 04:18:10;;;;;;;5.40;2.83;;;;;;;6.38;74.82;100900.84;1785179;78;20985;-52
2021/09/07 04:20:37;;;;;;;4.60;2.67;;;;;;;6.51;74.97;100897.56;1751744;80;21746;-51
2021/09/07 04:23:04;;;;;;;5.00;2.77;;;;;;;6.65;75.06;100903.59;1773700;78;21156;-52
2021/09/07 04:25:32;;;;;;;6.97;3.50;;;;;;;6.78;75.05;100902.53;1783609;78;21020;-51
2021/09/07 04:27:59;;;;;;;5.03;3.00;;;;;;;6.88;75.11;100906.41;1778069;78;21132;-51
2021/09/07 04:30:25;;;;;;;7.33;3.17;;;;;;;6.97;75.31;100901.81;1775309;78;21052;-51
2021/09/07 04:32:51;;;;;;;3.07;1.90;;;;;;;7.10;75.46;100903.83;1778110;78;21106;-51
2021/09/07 04:35:18;;;;;;;5.47;2.03;;;;;;;7.26;75.78;100909.36;1776381;78;21092;-51
2021/09/07 04:37:45;;;;;;;3.87;1.77;;;;;;;7.46;75.99;100901.89;1754422;79;21124;-51
2021/09/07 04:40:12;;;;;;;8.10;2.00;;;;;;;7.73;76.03;100900.97;1749932;80;21602;-52
2021/09/07 04:42:39;;;;;;;5.10;2.67;;;;;;;8.01;75.90;100896.83;1755524;79;20914;-52
2021/09/07 04:45:07;;;;;;;4.10;2.90;;;;;;;8.29;75.59;100895.37;1758883;80;21027;-51
2021/09/07 04:47:33;;;;;;;5.60;2.13;;;;;;;8.58;75.41;100888.54;1751366;80;20951;-51
2021/09/07 04:49:59;;;;;;;7.37;3.20;;;;;;;8.80;74.82;100884.44;1750041;80;21436;-51
2021/09/07 04:52:26;;;;;;;5.13;2.40;;;;;;;8.99;74.54;100888.92;1747870;80;21439;-52
2021/09/07 04:54:52;;;;;;;4.17;2.50;;;;;;;9.13;74.24;100888.13;1775777;78;21596;-52
2021/09/07 04:57:20;;;;;;;5.40;2.53;;;;;;;9.24;73.59;100885.19;1780524;78;21107;-51
2021/09/07 04:59:47;;;;;;;6.90;2.13;;;;;;;9.32;73.10;100884.07;1780733;78;21041;-53
2021/09/07 05:02:13;;;;;;;6.13;2.30;;;;;;;9.41;72.63;100873.55;1759937;79;21101;-52
2021/09/07 05:04:39;;;;;;;7.07;2.30;;;;;;;9.50;72.02;100884.06;1756598;79;21545;-52
2021/09/07 05:07:06;;;;;;;6.17;2.30;;;;;;;9.60;71.78;100884.71;1761619;79;21484;-52
2021/09/07 05:09:33;;;;;;;4.60;1.93;;;;;;;9.68;71.19;100875.98;1757999;79;21558;-53
2021/09/07 05:11:59;;;;;;;8.23;1.57;;;;;;;9.79;70.65;100884.16;1759518;79;21231;-52
2021/09/07 05:14:27;;;;;;;5.42;1.50;;;;;;;9.91;70.32;100884.76;1758151;79;20981;-53
2021/09/07 05:16:53;;;;;;;3.60;1.45;;;;;;;10.02;70.01;100890.73;1759495;79;21073;-52
2021/09/07 05:19:20;;;;;;;4.17;1.85;;;;;;;10.11;69.30;100892.70;1744689;80;21086;-52
2021/09/07 05:21:48;;;;;;;2.05;1.32;;;;;;;10.22;69.11;100889.25;1754678;80;21808;-52
2021/09/07 05:24:15;;;;;;;4.47;2.12;;;;;;;10.31;68.68;100886.77;1757834;79;22652;-53
2021/09/07 05:26:41;;;;;;;3.98;1.42;;;;;;;10.39;68.17;100895.49;1755227;80;21562;-52
2021/09/07 05:29:08;;;;;;;5.75;1.25;;;;;;;10.46;67.75;100897.56;1753615;79;21744;-52
2021/09/07 05:31:35;;;;;;;3.55;1.42;;;;;;;10.52;67.21;100903.64;1752876;79;21819;-52
2021/09/07 05:34:01;;;;;;;4.72;1.62;;;;;;;10.57;66.74;100896.30;1759953;79;21569;-52
2021/09/07 05:36:28;;;;;;;4.67;2.00;;;;;;;10.63;66.34;100905.14;1756402;80;21319;-52
2021/09/07 05:38:54;;;;;;;3.12;1.40;;;;;;;10.68;66.15;100907.21;1749074;80;21066;-52
2021/09/07 05:41:20;;;;;;;8.50;1.80;;;;;;;10.72;65.80;100908.41;1752450;79;21131;-52
2021/09/07 05:43:48;;;;;;;3.95;1.50;;;;;;;10.78;65.67;100911.39;1753985;79;21092;-52
2021/09/07 05:46:14;;;;;;;3.80;1.07;;;;;;;10.84;65.54;100913.42;1754994;80;22278;-52
2021/09/07 05:48:41;;;;;;;2.15;1.10;;;;;;;10.91;65.61;100915.45;1752757;80;21733;-52
2021/09/07 05:51:07;;;;;;;5.08;1.07;;;;;;;10.98;65.40;100903.55;1753339;80;21482;-51
2021/09/07 05:53:34;;;;;;;4.92;1.35;;;;;;;11.08;65.24;100913.11;1760661;79;21860;-52
2021/09/07 05:56:00;;;;;;;3.60;1.30;;;;;;;11.18;65.10;100917.28;1754330;79;22214;-52
2021/09/07 05:58:26;;;;;;;3.25;1.17;;;;;;;11.29;65.06;100912.91;1757148;79;22262;-51
2021/09/07 06:00:53;;;;;;;5.60;1.27;;;;;;;11.41;64.78;100919.69;1755482;79;21472;-53
2021/09/07 06:03:19;;;;;;;2.22;1.10;;;;;;;11.53;64.40;100920.17;1755098;80;21609;-53
2021/09/07 06:05:46;;;;;;;4.30;1.10;;;;;;;11.64;63.79;100911.27;1754522;80;22526;-52
2021/09/07 06:08:12;;;;;;;2.67;1.02;;;;;;;11.77;63.58;100918.48;1755387;79;21108;-52
2021/09/07 06:10:39;;;;;;;3.95;1.10;;;;;;;11.89;62.75;100921.23;1780196;78;21160;-52
2021/09/07 06:13:05;;;;;;;2.02;0.80;;;;;;;12.00;62.71;100923.05;1784328;79;20890;-52
2021/09/07 06:15:33;;;;;;;3.65;1.15;;;;;;;12.08;61.96;100921.84;1782894;78;20996;-52
2021/09/07 06:18:00;;;;;;;6.03;1.52;;;;;;;12.17;61.26;100917.94;1785106;78;21073;-51
2021/09/07 06:20:27;;;;;;;4.00;1.00;;;;;;;12.26;60.62;100931.09;1765019;79;21139;-52
2021/09/07 06:22:54;;;;;;;5.70;1.00;;;;;;;12.33;60.73;100930.44;1766616;79;21047;-52
2021/09/07 06:25:22;;;;;;;4.72;1.00;;;;;;;12.42;60.71;100923.31;1768702;79;20907;-51
2021/09/07 06:27:48;;;;;;;5.40;0.90;;;;;;;12.51;60.45;100924.31;1767892;79;20937;-51
2021/09/07 06:30:16;;;;;;;2.37;1.00;;;;;;;12.60;60.02;100926.67;1773793;79;20977;-52
2021/09/07 06:32:43;;;;;;;2.10;1.10;;;;;;;12.68;60.03;100925.91;1767951;79;21748;-51
2021/09/07 06:35:10;;;;;;;3.60;0.95;;;;;;;12.76;59.78;100923.80;1769995;79;21131;-52
2021/09/07 06:37:36;;;;;;;7.40;1.37;;;;;;;12.84;59.63;100927.08;1770411;79;20921;-52
2021/09/07 06:40:05;;;;;;;7.28;1.30;;;;;;;12.93;59.53;100927.19;1771112;79;20869;-52
2021/09/07 06:44:04;;;;;;;3.67;1.17;;;;;;;13.09;59.42;100922.97;1779343;78;23093;-54
2021/09/07 06:46:30;;;;;;;7.87;1.52;;;;;;;13.12;59.27;100922.83;1735278;80;21013;-51
2021/09/07 06:48:57;;;;;;;11.53;1.00;;;;;;;13.20;59.20;100930.19;1737352;80;21144;-50
2021/09/07 06:51:24;;;;;;;3.62;1.32;;;;;;;13.31;58.69;100930.23;1739379;80;20973;-51
2021/09/07 06:53:50;;;;;;;7.08;1.45;;;;;;;13.42;58.68;100934.27;1735720;80;21056;-50
2021/09/07 06:56:16;;;;;;;3.47;1.57;;;;;;;13.53;58.71;100940.09;1732732;80;20962;-51
2021/09/07 06:58:44;;;;;;;6.60;1.72;;;;;;;13.63;58.20;100936.53;1736238;80;21057;-51
2021/09/07 07:01:11;;;;;;;6.95;1.20;;;;;;;13.72;58.24;100939.32;1738843;80;22225;-50
2021/09/07 07:03:37;;;;;;;9.60;1.55;;;;;;;13.82;58.00;100946.11;1733844;80;21504;-50
2021/09/07 07:06:04;;;;;;;5.30;1.10;;;;;;;13.90;57.25;100940.77;1734915;80;20986;-53
2021/09/07 07:08:30;;;;;;;5.72;1.50;;;;;;;13.98;56.64;100945.38;1744169;80;22292;-53
2021/09/07 07:10:56;;;;;;;5.50;1.65;;;;;;;14.06;56.42;100940.98;1734475;80;21069;-52
2021/09/07 07:13:22;;;;;;;3.83;1.02;;;;;;;14.15;56.53;100941.94;1700247;81;21148;-53
2021/09/07 07:15:49;;;;;;;11.00;1.35;;;;;;;14.22;55.73;100941.19;1692160;81;21033;-54
2021/09/07 07:18:16;;;;;;;3.17;1.15;;;;;;;14.26;55.51;100942.35;1693575;81;21118;-53
2021/09/07 07:20:43;;;;;;;5.75;1.25;;;;;;;14.32;55.14;100943.42;1695264;81;21080;-53
2021/09/07 07:23:10;;;;;;;5.72;1.10;;;;;;;14.38;54.66;100946.31;1703771;81;21067;-54
2021/09/07 07:25:36;;;;;;;3.05;1.12;;;;;;;14.45;55.03;100938.86;1698336;81;21212;-53
2021/09/07 07:28:04;;;;;;;5.95;1.07;;;;;;;14.54;54.78;100945.21;1701250;81;20874;-53
2021/09/07 07:30:32;;;;;;;5.87;1.10;;;;;;;14.61;54.66;100939.91;1690334;82;21046;-53
2021/09/07 07:32:58;;;;;;;8.45;1.10;;;;;;;14.71;54.20;100940.78;1669967;82;21070;-54
2021/09/07 07:35:26;;;;;;;2.75;0.80;;;;;;;14.80;53.91;100942.14;1688755;83;21096;-54
2021/09/07 07:37:52;;;;;;;5.50;0.80;;;;;;;14.90;53.32;100946.19;1680209;84;21140;-54
2021/09/07 07:40:18;;;;;;;6.03;0.90;;;;;;;15.00;51.19;100940.74;1679205;84;21081;-53
2021/09/07 07:42:45;;;;;;;5.47;1.17;;;;;;;15.10;51.72;100941.19;1673674;82;21078;-54
2021/09/07 07:45:11;;;;;;;4.15;0.75;;;;;;;15.18;51.55;100943.52;1658608;85;21086;-54
2021/09/07 07:47:38;;;;;;;2.75;0.70;;;;;;;15.26;50.90;100936.77;1660690;85;21081;-54
2021/09/07 07:50:06;;;;;;;1.85;0.60;;;;;;;15.32;50.72;100935.11;1689256;83;21139;-54
2021/09/07 07:52:34;;;;;;;1.95;0.70;;;;;;;15.40;50.33;100941.03;1680536;84;20943;-54
2021/09/07 07:55:01;;;;;;;2.95;0.70;;;;;;;15.47;49.12;100937.09;1678948;83;21128;-54
2021/09/07 07:57:27;;;;;;;4.95;0.82;;;;;;;15.53;48.91;100939.97;1672242;83;21077;-55
2021/09/07 07:59:54;;;;;;;1.07;0.80;;;;;;;15.57;48.37;100929.38;1686181;83;21060;-54
2021/09/07 08:02:20;;;;;;;2.42;0.70;;;;;;;15.64;48.29;100930.85;1668808;83;22619;-53
2021/09/07 08:04:47;;;;;;;2.80;0.70;;;;;;;15.73;48.52;100930.86;1656749;85;21635;-53
2021/09/07 08:07:13;;;;;;;1.77;0.75;;;;;;;15.82;47.86;100929.89;1675224;83;21506;-54
2021/09/07 08:09:40;;;;;;;1.15;0.55;;;;;;;15.91;47.24;100927.18;1664791;85;21070;-54
2021/09/07 08:12:07;;;;;;;4.62;0.70;;;;;;;15.99;46.36;100930.89;1658081;83;21107;-54
2021/09/07 08:14:33;;;;;;;3.00;0.70;;;;;;;16.05;46.68;100926.01;1662175;84;21164;-53
2021/09/07 08:17:00;;;;;;;4.28;1.15;;;;;;;16.13;46.56;100920.17;1682751;83;21085;-54
2021/09/07 08:19:27;;;;;;;1.10;0.70;;;;;;;16.19;46.28;100919.36;1673630;84;21081;-54
2021/09/07 08:21:53;;;;;;;0.98;0.57;;;;;;;16.28;46.55;100925.66;1680066;83;21116;-54
2021/09/07 08:24:20;;;;;;;1.55;0.80;;;;;;;16.36;46.24;100929.33;1675512;83;21570;-54
2021/09/07 08:26:46;;;;;;;5.60;0.78;;;;;;;16.42;45.75;100930.83;1667648;84;21100;-53
2021/09/07 08:29:13;;;;;;;2.37;0.72;;;;;;;16.49;45.55;100927.72;1673377;84;21146;-54
2021/09/07 08:31:39;;;;;;;1.72;0.60;;;;;;;16.55;45.14;100924.66;1667140;83;21111;-55
2021/09/07 08:34:05;;;;;;;3.50;0.90;;;;;;;16.61;45.35;100922.11;1672949;83;21643;-55
2021/09/07 08:36:32;;;;;;;5.62;0.60;;;;;;;16.69;44.44;100921.21;1659070;85;21069;-54
2021/09/07 08:38:58;;;;;;;3.20;0.90;;;;;;;16.78;44.24;100921.19;1670627;84;21777;-54
2021/09/07 08:41:24;;;;;;;5.75;0.70;;;;;;;16.82;44.44;100916.88;1693326;82;21550;-55
2021/09/07 08:43:52;;;;;;;1.95;0.60;;;;;;;16.85;44.46;100913.96;1692094;82;21346;-54
2021/09/07 08:46:19;;;;;;;1.00;0.60;;;;;;;16.90;44.57;100911.87;1672688;83;21685;-54
2021/09/07 08:48:46;;;;;;;1.25;0.70;;;;;;;16.97;43.93;100916.00;1670793;83;21072;-54
2021/09/07 08:51:17;;;;;;;2.70;0.65;;;;;;;17.07;43.59;100920.45;1697195;82;22446;-54
2021/09/07 08:53:44;;;;;;;3.62;0.90;;;;;;;17.13;43.05;100921.45;1665483;83;21091;-54
2021/09/07 08:56:11;;;;;;;1.10;0.70;;;;;;;17.18;42.77;100915.25;1696776;82;21081;-53
2021/09/07 08:58:38;;;;;;;2.37;0.53;;;;;;;17.23;42.38;100910.92;1675056;83;22218;-53
2021/09/07 09:01:16;;;;;;;0.72;0.50;;;;;;;17.27;43.52;100918.81;1697881;82;21649;-54
2021/09/07 09:03:45;;;;;;;1.22;0.50;;;;;;;17.33;42.71;100914.40;1679761;83;22339;-54
2021/09/07 09:06:12;;;;;;;2.92;0.80;;;;;;;17.37;42.04;100911.87;1691507;82;21099;-54
2021/09/07 09:08:38;;;;;;;1.35;0.50;;;;;;;17.42;41.36;100905.30;1676209;83;21131;-54
2021/09/07 09:11:10;;;;;;;0.72;0.42;;;;;;;17.44;41.77;100917.84;1695469;82;21052;-54
2021/09/07 09:13:46;;;;;;;0.90;0.40;;;;;;;17.46;42.00;100913.19;1683186;83;20902;-53
2021/09/07 09:16:14;;;;;;;1.20;0.50;;;;;;;17.50;41.28;100905.25;1694355;82;21843;-53
2021/09/07 09:18:44;;;;;;;1.02;0.42;;;;;;;17.53;41.95;100900.97;1697629;82;20985;-54
2021/09/07 09:21:27;;;;;;;1.37;0.50;;;;;;;17.58;42.12;100900.72;1671549;83;20976;-54
2021/09/07 09:24:17;;;;;;;1.12;0.60;;;;;;;17.61;41.67;100900.52;1682437;83;20929;-54
2021/09/07 09:27:00;;;;;;;5.25;0.60;;;;;;;17.65;42.25;100895.33;1695438;82;20945;-53
2021/09/07 09:29:34;;;;;;;4.62;0.70;;;;;;;17.70;41.90;100898.16;1666598;83;21473;-53
2021/09/07 09:32:10;;;;;;;2.08;0.60;;;;;;;17.78;41.95;100892.77;1670898;84;20898;-54
2021/09/07 09:34:38;;;;;;;5.45;0.50;;;;;;;17.83;41.75;100902.88;1665975;84;20921;-54
2021/09/07 09:37:14;;;;;;;2.60;0.50;;;;;;;17.88;41.44;100897.54;1686465;83;21008;-53
2021/09/07 09:39:47;;;;;;;1.70;0.50;;;;;;;17.97;41.26;100887.94;1690331;82;21104;-55
2021/09/07 09:42:27;;;;;;;1.95;0.50;;;;;;;18.06;41.29;100894.19;1693242;83;21169;-54
2021/09/07 09:45:07;;;;;;;1.15;0.47;;;;;;;18.14;41.26;100891.38;1665561;83;21103;-53
2021/09/07 09:47:40;;;;;;;0.55;0.40;;;;;;;18.20;40.59;100886.06;1695822;83;21716;-53
2021/09/07 09:50:09;;;;;;;1.95;0.70;;;;;;;18.29;40.90;100890.06;1662429;85;20895;-54
2021/09/07 09:52:37;;;;;;;0.57;0.40;;;;;;;18.35;40.20;100887.83;1672805;84;21848;-54
2021/09/07 09:55:05;;;;;;;0.82;0.45;;;;;;;18.38;39.56;100884.02;1676741;84;21464;-53
2021/09/07 09:57:32;;;;;;;1.60;0.40;;;;;;;18.37;39.41;100885.86;1665838;84;21032;-53
2021/09/07 09:59:58;;;;;;;0.70;0.45;;;;;;;18.35;39.53;100889.19;1666985;83;21696;-54
2021/09/07 10:02:25;;;;;;;1.00;0.60;;;;;;;18.37;39.54;100886.38;1691890;83;21095;-54
2021/09/07 10:04:53;;;;;;;1.47;0.50;;;;;;;18.42;39.76;100897.86;1692066;82;21092;-54
2021/09/07 10:07:21;;;;;;;3.40;0.57;;;;;;;18.47;39.78;100887.53;1676507;84;21084;-54
2021/09/07 10:09:48;;;;;;;7.35;0.57;;;;;;;18.53;39.81;100891.25;1675478;83;21055;-54
2021/09/07 10:12:24;;;;;;;2.90;0.40;;;;;;;18.56;39.42;100888.80;1694291;83;21068;-54
2021/09/07 10:25:55;;;;;;;0.90;0.50;;;;;;;18.71;38.48;100886.03;1665848;83;21060;-54
2021/09/07 10:28:45;;;;;;;1.52;0.42;;;;;;;18.75;38.88;100877.14;1690934;82;21715;-54
2021/09/07 10:31:16;;;;;;;1.67;0.50;;;;;;;18.73;38.33;100882.69;1672607;84;22577;-54
2021/09/07 10:33:44;;;;;;;0.45;0.40;;;;;;;18.73;38.38;100888.63;1678718;84;21133;-53
2021/09/07 10:36:20;;;;;;;1.27;0.50;;;;;;;18.71;37.87;100878.34;1677380;83;20927;-53
2021/09/07 10:38:53;;;;;;;0.82;0.42;;;;;;;18.66;38.18;100874.52;1674835;84;20994;-53
2021/09/07 10:41:38;;;;;;;1.45;0.50;;;;;;;18.56;37.81;100864.26;1677461;84;20974;-54
2021/09/07 10:44:11;;;;;;;1.80;0.55;;;;;;;18.49;38.82;100875.56;1668240;84;21786;-53
2021/09/07 10:46:45;;;;;;;1.07;0.50;;;;;;;18.50;38.91;100877.80;1655099;84;21173;-54
2021/09/07 10:49:46;;;;;;;2.45;0.50;;;;;;;18.54;38.66;100869.84;1675739;84;21130;-54
2021/09/07 10:52:21;;;;;;;0.57;0.40;;;;;;;18.60;38.83;100869.95;1686472;83;20985;-54
2021/09/07 10:55:09;;;;;;;2.45;0.40;;;;;;;18.61;38.84;100875.31;1675742;83;21092;-54
2021/09/07 10:57:52;;;;;;;1.12;0.50;;;;;;;18.64;38.85;100872.38;1681048;84;21814;-54
2021/09/07 11:00:29;;;;;;;2.58;0.53;;;;;;;18.67;38.04;100868.58;1671518;84;21162;-55
2021/09/07 11:02:59;;;;;;;3.30;0.50;;;;;;;18.69;38.18;100866.64;1681292;83;21163;-54
2021/09/07 11:05:36;;;;;;;0.80;0.50;;;;;;;18.74;39.20;100874.02;1674834;83;20938;-54
2021/09/07 11:08:13;;;;;;;1.05;0.47;;;;;;;18.81;38.29;100868.56;1677469;84;20990;-55
2021/09/07 11:10:50;;;;;;;1.50;0.50;;;;;;;18.82;38.13;100867.59;1656202;85;21066;-55
2021/09/07 11:13:28;;;;;;;0.75;0.42;;;;;;;18.80;38.56;100863.59;1660328;83;22283;-55
2021/09/07 11:15:57;;;;;;;0.60;0.40;;;;;;;18.77;38.72;100865.17;1686128;83;20965;-54
2021/09/07 11:18:33;;;;;;;0.90;0.50;;;;;;;18.73;38.73;100869.55;1677241;84;21412;-54
2021/09/07 11:21:03;;;;;;;1.05;0.40;;;;;;;18.72;39.50;100865.06;1692299;83;21103;-54
2021/09/07 11:23:32;;;;;;;4.65;0.60;;;;;;;18.71;39.03;100857.39;1683070;82;20926;-54
2021/09/07 11:26:06;;;;;;;2.90;0.53;;;;;;;18.74;38.63;100861.75;1678783;84;21017;-53
2021/09/07 11:28:36;;;;;;;4.05;0.50;;;;;;;18.79;38.89;100860.50;1656502;85;21298;-54
2021/09/07 11:31:04;;;;;;;3.90;0.50;;;;;;;18.85;38.97;100859.22;1675792;83;21009;-54
2021/09/07 11:33:35;;;;;;;2.27;0.55;;;;;;;18.90;38.98;100855.20;1684582;83;21017;-53
2021/09/07 11:36:08;;;;;;;0.70;0.60;;;;;;;18.97;38.93;100853.46;1673624;84;21097;-54
2021/09/07 11:38:40;;;;;;;0.72;0.50;;;;;;;19.02;38.71;100855.38;1660298;85;21543;-55
2021/09/07 11:41:11;;;;;;;0.85;0.50;;;;;;;19.07;37.96;100837.72;1673038;84;21777;-53
2021/09/07 11:43:45;;;;;;;0.70;0.50;;;;;;;19.09;37.69;100836.27;1667079;84;21101;-55
2021/09/07 11:46:16;;;;;;;;;;;;;;;19.12;38.35;100840.16;1670641;84;21125;-54
2021/09/07 11:48:55;;;;;;;0.70;0.40;;;;;;;19.13;38.34;100837.34;1671509;84;20227;-54